CFG3HM LGKR-EDDM
Flight info
| Callsign | CFG3HM |
|---|---|
| Flight time | N/A |
| Altitude | 34000 |
| Route | OLGAT DCT ABADI DCT CRAYE DCT GISAM DCT ORAKA DCT SPL DCT ALIVO DCT PENEP DCT RASTA DCT REDBU Q112 NAPSA NAPSA1B |
| Aircraft | A321/M-SDE3FGIJ1LORVWXYZ/LB1 |
Departure
| Time | 2026-05-05 20:41 |
|---|---|
| Airport | Corfu Ioannis Kapodistrias International Airport (LGKR) |
Arrival
| Time | N/A |
|---|---|
| Airport | Munich Airport (EDDM) |
| Time | Latitude | Longitude | Altitude | Speed | Heading |
|---|---|---|---|---|---|
| 2026-05-05 20:28 | 39.60667 | 19.91356 | 19 ft | 0 kts | 78° |
| 2026-05-05 20:33 | 39.60664 | 19.91341 | 18 ft | 4 kts | 79° |
| 2026-05-05 20:33 | 39.60659 | 19.91307 | 19 ft | 4 kts | 81° |
| 2026-05-05 20:33 | 39.60657 | 19.91272 | 22 ft | 4 kts | 94° |
| 2026-05-05 20:33 | 39.60662 | 19.91240 | 18 ft | 4 kts | 122° |
| 2026-05-05 20:34 | 39.60677 | 19.91222 | 18 ft | 1 kts | 168° |
| 2026-05-05 20:35 | 39.60649 | 19.91228 | 18 ft | 7 kts | 173° |
| 2026-05-05 20:36 | 39.60602 | 19.91210 | 18 ft | 7 kts | 225° |
| 2026-05-05 20:36 | 39.60563 | 19.91178 | 18 ft | 7 kts | 204° |
| 2026-05-05 20:36 | 39.60504 | 19.91148 | 19 ft | 11 kts | 196° |
| 2026-05-05 20:36 | 39.60419 | 19.91154 | 21 ft | 14 kts | 168° |
| 2026-05-05 20:37 | 39.60328 | 19.91177 | 20 ft | 12 kts | 168° |
| 2026-05-05 20:37 | 39.60275 | 19.91191 | 23 ft | 11 kts | 168° |
| 2026-05-05 20:37 | 39.60182 | 19.91215 | 22 ft | 10 kts | 169° |
| 2026-05-05 20:37 | 39.60097 | 19.91237 | 21 ft | 15 kts | 169° |
| 2026-05-05 20:38 | 39.59978 | 19.91269 | 21 ft | 19 kts | 168° |
| 2026-05-05 20:38 | 39.59852 | 19.91303 | 22 ft | 18 kts | 168° |
| 2026-05-05 20:38 | 39.59732 | 19.91335 | 21 ft | 18 kts | 168° |
| 2026-05-05 20:38 | 39.59610 | 19.91367 | 18 ft | 18 kts | 168° |
| 2026-05-05 20:39 | 39.59490 | 19.91399 | 17 ft | 17 kts | 168° |
| 2026-05-05 20:39 | 39.59373 | 19.91428 | 17 ft | 17 kts | 169° |
| 2026-05-05 20:39 | 39.59266 | 19.91458 | 18 ft | 14 kts | 167° |
| 2026-05-05 20:39 | 39.59188 | 19.91508 | 17 ft | 11 kts | 144° |
| 2026-05-05 20:40 | 39.59169 | 19.91488 | 17 ft | 3 kts | 289° |
| 2026-05-05 20:40 | 39.59234 | 19.91461 | 18 ft | 29 kts | 349° |
| 2026-05-05 20:40 | 39.59685 | 19.91344 | 19 ft | 100 kts | 348° |
| 2026-05-05 20:40 | 39.60560 | 19.91116 | 21 ft | 154 kts | 348° |
| 2026-05-05 20:41 | 39.61696 | 19.90846 | 408 ft | 166 kts | 349° |
| 2026-05-05 20:41 | 39.62822 | 19.90552 | 1102 ft | 164 kts | 349° |
| 2026-05-05 20:41 | 39.63976 | 19.90261 | 1580 ft | 177 kts | 348° |
| 2026-05-05 20:41 | 39.65128 | 19.89500 | 1729 ft | 200 kts | 315° |
| 2026-05-05 20:42 | 39.65787 | 19.87844 | 1944 ft | 217 kts | 277° |
| 2026-05-05 20:42 | 39.65805 | 19.85883 | 2408 ft | 221 kts | 268° |
| 2026-05-05 20:42 | 39.65776 | 19.83895 | 3071 ft | 219 kts | 268° |
| 2026-05-05 20:42 | 39.65759 | 19.81913 | 3656 ft | 224 kts | 272° |
| 2026-05-05 20:43 | 39.66247 | 19.79913 | 3818 ft | 249 kts | 305° |
| 2026-05-05 20:43 | 39.67543 | 19.78301 | 4252 ft | 266 kts | 320° |
| 2026-05-05 20:43 | 39.68999 | 19.76792 | 4986 ft | 269 kts | 320° |
| 2026-05-05 20:43 | 39.70477 | 19.75275 | 5708 ft | 273 kts | 321° |
| 2026-05-05 20:44 | 39.71974 | 19.73738 | 6440 ft | 276 kts | 321° |
| 2026-05-05 20:44 | 39.73487 | 19.72180 | 7118 ft | 279 kts | 320° |
| 2026-05-05 20:44 | 39.75006 | 19.70609 | 7822 ft | 280 kts | 320° |
| 2026-05-05 20:44 | 39.76540 | 19.69017 | 8515 ft | 283 kts | 320° |
| 2026-05-05 20:45 | 39.79642 | 19.65800 | 9927 ft | 287 kts | 320° |
| 2026-05-05 20:45 | 39.81206 | 19.64174 | 10283 ft | 301 kts | 320° |
| 2026-05-05 20:45 | 39.82900 | 19.62408 | 10410 ft | 322 kts | 320° |
| 2026-05-05 20:46 | 39.84703 | 19.60526 | 10546 ft | 342 kts | 320° |
| 2026-05-05 20:46 | 39.86606 | 19.58543 | 10805 ft | 356 kts | 320° |
| 2026-05-05 20:46 | 39.88551 | 19.56519 | 11355 ft | 360 kts | 320° |
| 2026-05-05 20:46 | 39.90510 | 19.54477 | 11993 ft | 362 kts | 320° |
| 2026-05-05 20:47 | 39.92480 | 19.52416 | 12643 ft | 363 kts | 320° |
| 2026-05-05 20:47 | 39.94455 | 19.50346 | 13285 ft | 365 kts | 320° |
| 2026-05-05 20:47 | 39.96440 | 19.48265 | 13917 ft | 367 kts | 320° |
| 2026-05-05 20:47 | 39.97759 | 19.46885 | 14280 ft | 369 kts | 320° |
| 2026-05-05 20:48 | 39.99774 | 19.44780 | 14785 ft | 372 kts | 320° |
| 2026-05-05 20:48 | 40.01805 | 19.42657 | 15279 ft | 375 kts | 320° |
| 2026-05-05 20:48 | 40.03849 | 19.40516 | 15783 ft | 378 kts | 320° |
| 2026-05-05 20:48 | 40.05903 | 19.38359 | 16297 ft | 381 kts | 320° |
| 2026-05-05 20:49 | 40.07975 | 19.36174 | 16786 ft | 383 kts | 320° |
| 2026-05-05 20:49 | 40.10055 | 19.33978 | 17281 ft | 386 kts | 320° |
| 2026-05-05 20:49 | 40.12152 | 19.31768 | 17763 ft | 388 kts | 320° |
| 2026-05-05 20:49 | 40.14264 | 19.29543 | 18251 ft | 391 kts | 320° |
| 2026-05-05 20:50 | 40.16386 | 19.27308 | 18700 ft | 393 kts | 320° |
| 2026-05-05 20:50 | 40.18517 | 19.25059 | 19123 ft | 395 kts | 319° |
| 2026-05-05 20:50 | 40.20657 | 19.22797 | 19546 ft | 396 kts | 319° |
| 2026-05-05 20:50 | 40.22808 | 19.20524 | 19962 ft | 398 kts | 319° |
| 2026-05-05 20:51 | 40.24967 | 19.18241 | 20372 ft | 400 kts | 319° |
| 2026-05-05 20:51 | 40.27113 | 19.15968 | 20775 ft | 402 kts | 319° |
| 2026-05-05 20:51 | 40.29318 | 19.13629 | 21196 ft | 404 kts | 319° |
| 2026-05-05 20:51 | 40.31470 | 19.11342 | 21590 ft | 406 kts | 319° |
| 2026-05-05 20:52 | 40.33667 | 19.09005 | 21996 ft | 408 kts | 319° |
| 2026-05-05 20:52 | 40.35874 | 19.06656 | 22387 ft | 410 kts | 318° |
| 2026-05-05 20:52 | 40.38092 | 19.04297 | 22808 ft | 411 kts | 318° |
| 2026-05-05 20:52 | 40.40319 | 19.01928 | 23211 ft | 413 kts | 318° |
| 2026-05-05 20:53 | 40.42558 | 18.99540 | 23592 ft | 415 kts | 318° |
| 2026-05-05 20:53 | 40.44808 | 18.97135 | 23915 ft | 417 kts | 318° |
| 2026-05-05 20:53 | 40.47063 | 18.94726 | 24251 ft | 418 kts | 318° |
| 2026-05-05 20:53 | 40.49320 | 18.92320 | 24598 ft | 419 kts | 318° |
| 2026-05-05 20:54 | 40.51593 | 18.89896 | 24939 ft | 420 kts | 318° |
| 2026-05-05 20:54 | 40.53859 | 18.87476 | 25275 ft | 421 kts | 318° |
| 2026-05-05 20:54 | 40.56133 | 18.85042 | 25604 ft | 422 kts | 318° |
| 2026-05-05 20:54 | 40.58411 | 18.82598 | 25922 ft | 423 kts | 318° |
| 2026-05-05 20:55 | 40.60695 | 18.80147 | 26234 ft | 424 kts | 318° |
| 2026-05-05 20:55 | 40.62985 | 18.77688 | 26534 ft | 425 kts | 319° |
| 2026-05-05 20:55 | 40.65280 | 18.75221 | 26824 ft | 427 kts | 319° |
| 2026-05-05 20:55 | 40.67582 | 18.72743 | 27126 ft | 428 kts | 319° |
| 2026-05-05 20:56 | 40.69888 | 18.70257 | 27434 ft | 429 kts | 319° |
| 2026-05-05 20:56 | 40.72198 | 18.67764 | 27736 ft | 430 kts | 319° |
| 2026-05-05 20:56 | 40.74523 | 18.65277 | 28023 ft | 431 kts | 321° |
| 2026-05-05 20:56 | 40.77058 | 18.63130 | 28301 ft | 435 kts | 329° |
| 2026-05-05 20:57 | 40.79753 | 18.61313 | 28643 ft | 435 kts | 330° |
| 2026-05-05 20:57 | 40.82448 | 18.59494 | 29034 ft | 433 kts | 330° |
| 2026-05-05 20:57 | 40.85085 | 18.57705 | 29421 ft | 431 kts | 330° |
| 2026-05-05 20:57 | 40.87750 | 18.55892 | 29810 ft | 429 kts | 330° |
| 2026-05-05 20:58 | 40.90397 | 18.54089 | 30206 ft | 427 kts | 330° |
| 2026-05-05 20:58 | 40.93030 | 18.52294 | 30543 ft | 425 kts | 330° |
| 2026-05-05 20:58 | 40.95657 | 18.50504 | 30877 ft | 423 kts | 330° |
| 2026-05-05 20:58 | 40.98263 | 18.48728 | 31203 ft | 421 kts | 330° |
| 2026-05-05 20:59 | 41.00867 | 18.46950 | 31531 ft | 419 kts | 330° |
| 2026-05-05 20:59 | 41.03454 | 18.45178 | 31859 ft | 418 kts | 330° |
| 2026-05-05 20:59 | 41.06032 | 18.43413 | 32198 ft | 416 kts | 330° |
| 2026-05-05 20:59 | 41.08601 | 18.41656 | 32497 ft | 415 kts | 329° |
| 2026-05-05 21:00 | 41.11168 | 18.39907 | 32807 ft | 414 kts | 329° |
| 2026-05-05 21:00 | 41.13725 | 18.38160 | 33130 ft | 413 kts | 329° |
| 2026-05-05 21:00 | 41.16271 | 18.36411 | 33445 ft | 411 kts | 329° |
| 2026-05-05 21:00 | 41.18809 | 18.34664 | 33763 ft | 410 kts | 329° |
| 2026-05-05 21:01 | 41.21340 | 18.32922 | 33953 ft | 409 kts | 329° |
| 2026-05-05 21:01 | 41.23860 | 18.31189 | 33978 ft | 406 kts | 329° |
| 2026-05-05 21:01 | 41.28838 | 18.27767 | 33977 ft | 405 kts | 329° |
| 2026-05-05 21:02 | 41.33836 | 18.24313 | 33977 ft | 405 kts | 329° |
| 2026-05-05 21:02 | 41.38831 | 18.20856 | 33977 ft | 405 kts | 329° |
| 2026-05-05 21:03 | 41.43834 | 18.17393 | 33980 ft | 405 kts | 329° |
| 2026-05-05 21:03 | 41.48821 | 18.13922 | 33978 ft | 405 kts | 329° |
| 2026-05-05 21:04 | 41.53587 | 18.09997 | 33977 ft | 402 kts | 323° |
| 2026-05-05 21:04 | 41.58272 | 18.05845 | 33985 ft | 409 kts | 323° |
| 2026-05-05 21:05 | 41.63078 | 18.01571 | 33970 ft | 419 kts | 323° |
| 2026-05-05 21:05 | 41.67942 | 17.97247 | 33969 ft | 420 kts | 323° |
| 2026-05-05 21:06 | 41.72816 | 17.92918 | 33971 ft | 420 kts | 323° |
| 2026-05-05 21:06 | 41.77658 | 17.88599 | 33968 ft | 420 kts | 323° |
| 2026-05-05 21:07 | 41.82523 | 17.84240 | 33988 ft | 421 kts | 323° |
| 2026-05-05 21:07 | 41.87386 | 17.79879 | 33982 ft | 420 kts | 323° |
| 2026-05-05 21:08 | 41.92247 | 17.75517 | 33979 ft | 420 kts | 323° |
| 2026-05-05 21:08 | 41.97116 | 17.71172 | 33963 ft | 420 kts | 323° |
| 2026-05-05 21:09 | 42.01986 | 17.66827 | 33957 ft | 421 kts | 323° |
| 2026-05-05 21:09 | 42.06867 | 17.62456 | 33976 ft | 421 kts | 323° |
| 2026-05-05 21:10 | 42.11746 | 17.58067 | 33963 ft | 421 kts | 323° |
| 2026-05-05 21:10 | 42.16621 | 17.53674 | 33962 ft | 422 kts | 323° |
| 2026-05-05 21:11 | 42.21470 | 17.49315 | 33961 ft | 422 kts | 323° |
| 2026-05-05 21:11 | 42.26349 | 17.44913 | 33960 ft | 421 kts | 323° |
| 2026-05-05 21:12 | 42.31226 | 17.40494 | 33972 ft | 422 kts | 323° |
| 2026-05-05 21:12 | 42.36101 | 17.36069 | 33967 ft | 423 kts | 322° |
| 2026-05-05 21:13 | 42.40982 | 17.31641 | 33960 ft | 423 kts | 322° |
| 2026-05-05 21:13 | 42.45880 | 17.27188 | 33960 ft | 424 kts | 322° |
| 2026-05-05 21:14 | 42.50742 | 17.22755 | 33960 ft | 424 kts | 322° |
| 2026-05-05 21:14 | 42.55634 | 17.18288 | 33983 ft | 424 kts | 322° |
| 2026-05-05 21:15 | 42.60514 | 17.13811 | 33977 ft | 423 kts | 322° |